Adak, Alaska
Current Conditions -  °F | °C
As of 4:16 AM on Thursday 18 Dec 2014 (Local Time) from PADK Reporting Station
Overcast Overcast  
Wind Chill: 25°   Ceiling: 2300
Heat Index: 36°   Visibility: 8mi
Dew Point: 30°   Wind: 20mph
Humidity: 81%   Direction: 100°E
Pressure: 29.1"   Gusts: NA
Location:  51.88°N, 176.66°W
Report Text: PADK 181416Z AUTO 10017KT 8SM FEW013 BKN023 OVC035 02/M01 A2910 RMK AO1
Loading
Personal Weather Stations






























Interactive Weather Map New forecast layout! Learn more

10-Day Weather Forecast

Advertisements
Track Severe Weather on mobile